Flight Track Log - Related Links

Times and Time Zones

All times are in EDT time to prevent confusion due to time zone crossing. See the UAL109 flight status page for this flight to view local times or setup timezone preferences in your user account.

Time Position Orientation Groundspeed Altitude Reporting Facility
EDT Latitude Longitude Course Direction KTS MPH feet Rate Location/Type
Sat 07:03:36 AM 55.9480 -3.3660 332° Northwest 9 10  Level FlightAware ADS-B
Sat 07:04:12 AM 55.9490 -3.3640 48° Northeast 14 16 412 Level FlightAware ADS-B
Sat 07:04:37 AM 55.9500 -3.3610 59° Northeast 14 16 478 Level FlightAware ADS-B
Sat 07:05:07 AM 55.9510 -3.3580 59° Northeast 19 22 537 Level FlightAware ADS-B
Sat 07:06:39 AM 55.9550 -3.3520 40° Northeast 5 6 632 Level FlightAware ADS-B
Sat 07:07:33 AM 55.9410 -3.3910 237° Southwest 198 228 1,367 Level FlightAware ADS-B
Sat 07:07:58 AM 55.9310 -3.4230 241° Southwest 175 201 1,800 3,382 Climbing FlightAware ADS-B
Sat 07:08:28 AM 55.9170 -3.4600 236° Southwest 178 205 3,100 2,000 Climbing FlightAware ADS-B
Sat 07:08:58 AM 55.9040 -3.5010 241° Southwest 208 239 3,800 1,532 Climbing FlightAware ADS-B
Sat 07:09:15 AM 55.9000 -3.5310 257° West 220 253 4,300 1,857 Climbing FlightAware ADS-B
Sat 07:09:40 AM 55.8960 -3.5780 261° West 242 278 5,100 2,057 Climbing FlightAware ADS-B
Sat 07:09:50 AM 55.8940 -3.5970 259° West 247 284 5,500 2,550 Climbing FlightAware ADS-B
Sat 07:10:20 AM 55.8880 -3.6580 260° West 257 296 6,800 2,737 Climbing FlightAware ADS-B
Sat 07:10:47 AM 55.8830 -3.7100 260° West 256 295 8,100 2,897 Climbing FlightAware ADS-B
Sat 07:11:18 AM 55.8760 -3.7810 260° West 261 300 9,600 2,229 Climbing FlightAware ADS-B
Sat 07:11:57 AM 55.8680 -3.8600 260° West 287 330 10,700 1,407 Climbing FlightAware ADS-B
Sat 07:12:39 AM 55.8511 -3.9786 260° West 364 419 11,500 1,200 Climbing FlightAware UK
Sat 07:12:42 AM 55.8500 -3.9750 260° West 337 388 11,600 2,233 Climbing FlightAware ADS-B
Sat 07:13:22 AM 55.8210 -4.0760 243° Southwest 349 402 13,100 2,222 Climbing FlightAware ADS-B
Sat 07:14:03 AM 55.7893 -4.1936 243° Southwest 386 444 14,600 2,143 Climbing FlightAware UK
Sat 07:14:04 AM 55.7890 -4.1850 243° Southwest 363 418 14,600 2,167 Level FlightAware ADS-B
Sat 07:14:39 AM 55.7613 -4.2896 243° Southwest 394 453 15,900 2,267 Climbing FlightAware UK
Sat 07:14:49 AM 55.7550 -4.3040 243° Southwest 370 426 16,300 2,280 Climbing FlightAware ADS-B
Sat 07:15:29 AM 55.7220 -4.4150 242° Southwest 377 434 17,800 2,047 Climbing FlightAware ADS-B
Sat 07:16:14 AM 55.6860 -4.5410 243° Southwest 388 447 19,200 1,816 Climbing FlightAware ADS-B
Sat 07:16:45 AM 55.6589 -4.6385 243° Southwest 414 476 20,100 1,650 Climbing FlightAware UK
Sat 07:16:54 AM 55.6520 -4.6550 243° Southwest 400 460 20,300 1,667 Climbing FlightAware ADS-B
Sat 07:17:39 AM 55.6130 -4.7850 242° Southwest 408 470 21,600 1,694 Climbing FlightAware ADS-B
Sat 07:18:19 AM 55.5780 -4.9050 243° Southwest 418 481 22,700 1,556 Climbing FlightAware ADS-B
Sat 07:19:00 AM 55.5410 -5.0290 242° Southwest 427 491 23,700 1,378 Climbing FlightAware ADS-B
Sat 07:19:33 AM 55.5084 -5.1433 242° Southwest 448 516 24,400 1,395 Climbing FlightAware UK
Sat 07:19:43 AM 55.5040 -5.1550 242° Southwest 437 503 24,700 1,375 Climbing FlightAware ADS-B
Sat 07:20:21 AM 55.4647 -5.2969 242° Southwest 456 525 25,500 1,350 Climbing FlightAware UK
Sat 07:20:23 AM 55.4650 -5.2930 242° Southwest 445 512 25,600 1,304 Climbing FlightAware ADS-B
Sat 07:21:07 AM 55.4290 -5.4160 243° Southwest 452 520 26,500 1,326 Climbing FlightAware ADS-B
Sat 07:21:49 AM 55.3830 -5.5740 243° Southwest 459 528 27,500 1,364 Climbing FlightAware ADS-B
Sat 07:21:51 AM 55.3785 -5.5917 243° Southwest 468 539 27,500 1,125 Level FlightAware UK
Sat 07:22:21 AM 55.3490 -5.6915 243° Southwest 472 543 28,100 1,273 Climbing FlightAware UK
Sat 07:22:24 AM 55.3480 -5.6920 243° Southwest 464 534 28,200 1,167 Climbing FlightAware ADS-B
Sat 07:22:57 AM 55.3131 -5.8128 243° Southwest 478 550 28,800 1,171 Climbing FlightAware UK
Sat 07:23:05 AM 55.3090 -5.8270 243° Southwest 471 542 29,000 1,592 Climbing FlightAware ADS-B
Sat 07:23:46 AM 55.2670 -5.9680 242° Southwest 469 540 30,100 1,537 Climbing FlightAware ADS-B
Sat 07:24:27 AM 55.2225 -6.1160 242° Southwest 474 545 31,100 1,429 Climbing FlightAware UK
Sat 07:24:28 AM 55.2250 -6.1090 242° Southwest 466 536 31,100 1,500 Level FlightAware ADS-B
Sat 07:25:03 AM 55.1866 -6.2347 242° Southwest 470 541 32,000 1,500 Climbing FlightAware UK
Sat 07:25:08 AM 55.1860 -6.2370 242° Southwest 463 533 32,100 1,333 Climbing FlightAware ADS-B
Sat 07:25:39 AM 55.1540 -6.3440 242° Southwest 463 533 32,800 1,250 Climbing FlightAware ADS-B
Sat 07:26:20 AM 55.1140 -6.4760 242° Southwest 462 532 33,600 1,111 Climbing FlightAware ADS-B
Sat 07:27:00 AM 55.0760 -6.6020 242° Southwest 462 532 34,300 1,116 Climbing FlightAware ADS-B
Sat 07:27:03 AM 55.0665 -6.6296 242° Southwest 464 534 34,400 1,091 Climbing FlightAware UK
Sat 07:27:33 AM 55.0363 -6.7276 242° Southwest 462 532 34,900 973 Climbing FlightAware UK
Sat 07:27:40 AM 55.0340 -6.7410 242° Southwest 462 532 35,000 125 Climbing FlightAware ADS-B
Sat 07:28:21 AM 54.9930 -6.8750 242° Southwest 463 533 35,000  Level FlightAware ADS-B
Sat 07:28:56 AM 54.9570 -6.9900 242° Southwest 464 534 35,000  Level FlightAware ADS-B
Sat 07:29:03 AM 54.9441 -7.0241 242° Southwest 466 536 35,000  Level FlightAware UK
Sat 07:29:33 AM 54.9134 -7.1227 242° Southwest 466 536 35,000  Level FlightAware UK
Sat 07:29:36 AM 54.9150 -7.1240 242° Southwest 462 532 35,000  Level FlightAware ADS-B
Sat 07:30:21 AM 54.8700 -7.2700 242° Southwest 460 529 35,000  Level FlightAware ADS-B
Sat 07:30:56 AM 54.8340 -7.3840 241° Southwest 459 528 35,000  Level FlightAware ADS-B
Sat 07:31:38 AM 54.7839 -7.5318 241° Southwest 460 529 35,000  Level FlightAware UK
Sat 07:31:46 AM 54.7830 -7.5460 241° Southwest 464 534 35,000  Level FlightAware ADS-B
Sat 07:32:27 AM 54.7410 -7.6780 241° Southwest 464 534 35,000  Level FlightAware ADS-B
Sat 07:33:02 AM 54.7050 -7.7890 241° Southwest 465 535 35,000  Level FlightAware ADS-B
Sat 07:33:08 AM 54.6903 -7.8226 241° Southwest 460 529 35,000  Level FlightAware UK
Sat 07:33:38 AM 54.6590 -7.9198 241° Southwest 458 527 35,000  Level FlightAware UK
Sat 07:33:51 AM 54.6530 -7.9510 241° Southwest 466 536 35,000  Level FlightAware ADS-B
Sat 07:34:26 AM 54.6160 -8.0670 241° Southwest 468 539 35,000  Level FlightAware ADS-B
Sat 07:35:07 AM 54.5740 -8.1950 241° Southwest 469 540 35,000  Level FlightAware ADS-B
Sat 07:35:08 AM 54.5637 -8.2116 241° Southwest 456 525 35,000  Level FlightAware UK
Sat 07:35:38 AM 54.5316 -8.3086 241° Southwest 456 525 35,000  Level FlightAware UK
Sat 07:35:51 AM 54.5270 -8.3390 241° Southwest 464 534 35,000  Level FlightAware ADS-B
Sat 07:36:31 AM 54.4850 -8.4680 241° Southwest 461 531 35,000  Level FlightAware ADS-B
Sat 07:37:12 AM 54.4420 -8.5980 241° Southwest 462 532 35,000  Level FlightAware ADS-B
Sat 07:37:14 AM 54.4308 -8.6131 241° Southwest 450 518 35,000  Level FlightAware UK
Sat 07:37:44 AM 54.3990 -8.7082 241° Southwest 450 518 35,000  Level FlightAware UK
Sat 07:37:52 AM 54.4000 -8.7250 241° Southwest 464 534 35,000  Level FlightAware ADS-B
Sat 07:38:39 AM 54.3520 -8.8670 240° Southwest 460 529 35,000  Level FlightAware ADS-B
Sat 07:39:12 AM 54.3140 -8.9810 240° Southwest 461 531 35,000  Level FlightAware ADS-B
Sat 07:39:14 AM 54.3031 -8.9939 240° Southwest 448 516 35,000  Level FlightAware UK
Sat 07:39:53 AM 54.2700 -9.1110 240° Southwest 462 532 35,000  Level FlightAware ADS-B
Sat 07:40:39 AM 54.2210 -9.2560 240° Southwest 463 533 35,000  Level FlightAware ADS-B
Sat 07:41:18 AM 54.1780 -9.3810 240° Southwest 464 534 35,000  Level FlightAware ADS-B
Sat 07:41:58 AM 54.1350 -9.5070 240° Southwest 466 536 35,000  Level FlightAware ADS-B
Sat 07:42:43 AM 54.0840 -9.6540 239° Southwest 472 543 35,000  Level FlightAware ADS-B
Sat 07:43:23 AM 54.0410 -9.7800 240° Southwest 473 544 35,000  Level FlightAware ADS-B
Sat 07:44:03 AM 53.9960 -9.9090 239° Southwest 474 545 35,000  Level FlightAware ADS-B
Sat 07:44:48 AM 53.9450 -10.0520 239° Southwest 475 547 35,000  Level FlightAware ADS-B
Sat 07:45:48 AM 53.8780 -10.2410 239° Southwest 476 548 35,000  Level FlightAware ADS-B
Sat 07:46:28 AM 53.8320 -10.3710 239° Southwest 472 543 35,000  Level FlightAware ADS-B
Sat 07:47:08 AM 53.7860 -10.4990 239° Southwest 473 544 35,000  Level FlightAware ADS-B
Sat 07:47:48 AM 53.7390 -10.6290 239° Southwest 474 545 35,000  Level FlightAware ADS-B
Sat 07:48:33 AM 53.6890 -10.7680 239° Southwest 476 548 35,000  Level FlightAware ADS-B
Sat 07:49:13 AM 53.6420 -10.8970 238° Southwest 477 549 35,000  Level FlightAware ADS-B
Sat 07:49:58 AM 53.5900 -11.0390 238° Southwest 479 551 35,000  Level FlightAware ADS-B
Sat 07:50:38 AM 53.5420 -11.1670 238° Southwest 485 558 35,000  Level FlightAware ADS-B
Sat 07:51:23 AM 53.4890 -11.3110 238° Southwest 485 558 35,000  Level FlightAware ADS-B
Sat 07:52:13 AM 53.4300 -11.4680 238° Southwest 486 559 35,000  Level FlightAware ADS-B
Sat 07:52:53 AM 53.3820 -11.5970 238° Southwest 487 560 35,000  Level FlightAware ADS-B
Sat 07:53:33 AM 53.3340 -11.7250 238° Southwest 487 560 35,000  Level FlightAware ADS-B
Sat 07:54:08 AM 53.2940 -11.8280 237° Southwest 486 559 35,000  Level FlightAware ADS-B
Sat 07:54:53 AM 53.2380 -11.9770 238° Southwest 483 556 35,000  Level FlightAware ADS-B
Sat 07:55:33 AM 53.1880 -12.1060 237° Southwest 487 560 35,000  Level FlightAware ADS-B
Sat 07:56:17 AM 53.1360 -12.2400 237° Southwest 492 566 35,000  Level FlightAware ADS-B
Sat 07:57:22 AM 53.0580 -12.4410 237° Southwest 505 581 35,000  Level FlightAware ADS-B
Sat 07:58:02 AM 53.0040 -12.5780 237° Southwest 506 582 35,000  Level FlightAware ADS-B
Sat 07:58:42 AM 52.9570 -12.6980 237° Southwest 507 583 35,000  Level FlightAware ADS-B
Sat 07:59:23 AM 52.9020 -12.8380 237° Southwest 506 582 35,000  Level FlightAware ADS-B
Sat 08:00:02 AM 52.8490 -12.9710 237° Southwest 506 582 35,000  Level FlightAware ADS-B
Sat 08:00:52 AM 52.7940 -13.1100 237° Southwest 507 583 35,000  Level FlightAware ADS-B
Sat 08:01:41 AM 52.7410 -13.2450 237° Southwest 507 583 35,000  Level FlightAware ADS-B
Sat 08:02:17 AM 52.7020 -13.3450 237° Southwest 507 583 35,000  Level FlightAware ADS-B
Sat 08:03:17 AM 52.6360 -13.5100 237° Southwest 507 583 35,000  Level FlightAware ADS-B
Sat 08:04:05 AM 52.5840 -13.6420 237° Southwest 507 583 35,000  Level FlightAware ADS-B
Sat 08:04:41 AM 52.5450 -13.7410 237° Southwest 507 583 35,000  Level FlightAware ADS-B
Sat 08:05:29 AM 52.4930 -13.8730 237° Southwest 507 583 35,000  Level FlightAware ADS-B
Sat 08:06:05 AM 52.4540 -13.9720 237° Southwest 507 583 35,000  Level FlightAware ADS-B
Sat 08:06:51 AM 52.4040 -14.0980 237° Southwest 507 583 35,000  Level FlightAware ADS-B
Sat 08:07:28 AM 52.3640 -14.1990 237° Southwest 507 583 35,000  Level FlightAware ADS-B
Sat 08:08:28 AM 52.2990 -14.3640 237° Southwest 507 583 35,000  Level FlightAware ADS-B
Sat 08:09:04 AM 52.2590 -14.4620 236° Southwest 507 583 35,000  Level FlightAware ADS-B
Sat 08:09:52 AM 52.2070 -14.5930 237° Southwest 507 583 35,000  Level FlightAware ADS-B
Sat 08:12:00 AM 52.2411 -14.9791 278° West  Level Estimated
Sat 08:13:00 AM 52.2567 -15.1604 278° West  Level Estimated
Sat 08:14:00 AM 52.2720 -15.3417 278° West  Level Estimated
Sat 08:15:00 AM 52.2870 -15.5232 278° West  Level Estimated
Sat 08:16:00 AM 52.3017 -15.7047 278° West  Level Estimated
Sat 08:17:00 AM 52.2505 -15.8894 246° West  Level FlightAware Approximate
Sat 08:18:00 AM 52.1989 -16.0736 246° West  Level FlightAware Approximate
Sat 08:19:00 AM 52.1471 -16.2574 245° Southwest  Level FlightAware Approximate
Sat 08:20:00 AM 52.0949 -16.4407 245° Southwest  Level FlightAware Approximate
Sat 08:21:00 AM 52.0425 -16.6236 245° Southwest  Level FlightAware Approximate
Sat 08:22:00 AM 51.9898 -16.8061 245° Southwest  Level FlightAware Approximate
Sat 08:23:00 AM 51.9368 -16.9882 245° Southwest  Level FlightAware Approximate
Sat 08:24:00 AM 51.8836 -17.1698 245° Southwest  Level FlightAware Approximate
Sat 08:25:00 AM 51.8300 -17.3510 245° Southwest  Level FlightAware Approximate
Sat 08:26:00 AM 51.7762 -17.5318 244° Southwest  Level FlightAware Approximate
Sat 08:27:00 AM 51.7221 -17.7121 244° Southwest  Level FlightAware Approximate
Sat 08:28:00 AM 51.6678 -17.8920 244° Southwest  Level FlightAware Approximate
Sat 08:29:00 AM 51.6131 -18.0715 244° Southwest  Level FlightAware Approximate
Sat 08:30:00 AM 51.5582 -18.2505 244° Southwest  Level FlightAware Approximate
Sat 08:31:00 AM 51.5030 -18.4292 244° Southwest  Level FlightAware Approximate
Sat 08:32:00 AM 51.4476 -18.6073 244° Southwest  Level FlightAware Approximate
Sat 08:33:00 AM 51.3918 -18.7851 243° Southwest  Level FlightAware Approximate
Sat 08:33:00 AM 51.0000 -20.0000 265° West 514 592 35,000  Level ETMS Enhanced Traffic Management System
Sat 08:34:00 AM 51.3359 -18.9624 243° Southwest  Level FlightAware Approximate
Sat 08:35:00 AM 51.2796 -19.1393 243° Southwest  Level FlightAware Approximate
Sat 08:36:00 AM 51.2231 -19.3157 243° Southwest  Level FlightAware Approximate
Sat 08:37:00 AM 51.1663 -19.4917 243° Southwest  Level FlightAware Approximate
Sat 08:38:00 AM 51.1092 -19.6673 243° Southwest  Level FlightAware Approximate
Sat 08:39:00 AM 51.0519 -19.8424 243° Southwest  Level FlightAware Approximate
Sat 08:40:00 AM 50.9012 -21.5809 264° West 514 592 35,000  Level FlightAware Transoceanic
Sat 08:41:00 AM 50.8854 -21.8061 264° West 514 592 35,000  Level FlightAware Transoceanic
Sat 08:42:00 AM 50.8691 -22.0312 263° West 514 592 35,000  Level FlightAware Transoceanic
Sat 08:43:00 AM 50.8524 -22.2562 263° West 514 592 35,000  Level FlightAware Transoceanic
Sat 08:44:00 AM 50.8352 -22.4810 263° West 514 592 35,000  Level FlightAware Transoceanic
Sat 08:45:00 AM 50.8176 -22.7056 263° West 514 592 35,000  Level FlightAware Transoceanic
Sat 08:46:00 AM 50.7996 -22.9301 263° West 514 592 35,000  Level FlightAware Transoceanic
Sat 08:47:00 AM 50.7812 -23.1543 263° West 514 592 35,000  Level FlightAware Transoceanic
Sat 08:48:00 AM 50.7623 -23.3784 262° West 514 592 35,000  Level FlightAware Transoceanic
Sat 08:49:00 AM 50.7430 -23.6024 262° West 514 592 35,000  Level FlightAware Transoceanic
Sat 08:50:00 AM 50.7233 -23.8261 262° West 514 592 35,000  Level FlightAware Transoceanic
Sat 08:51:00 AM 50.7031 -24.0496 262° West 514 592 35,000  Level FlightAware Transoceanic
Sat 08:52:00 AM 50.6826 -24.2729 262° West 514 592 35,000  Level FlightAware Transoceanic
Sat 08:53:00 AM 50.6615 -24.4961 261° West 514 592 35,000  Level FlightAware Transoceanic
Sat 08:54:00 AM 50.6401 -24.7190 261° West 514 592 35,000  Level FlightAware Transoceanic
Sat 08:55:00 AM 50.6183 -24.9418 261° West 514 592 35,000  Level FlightAware Transoceanic
Sat 08:56:00 AM 50.5960 -25.1643 261° West 514 592 35,000  Level FlightAware Transoceanic
Sat 08:57:00 AM 50.5733 -25.3866 261° West 514 592 35,000  Level FlightAware Transoceanic
Sat 08:58:00 AM 50.5501 -25.6087 261° West 514 592 35,000  Level FlightAware Transoceanic
Sat 08:59:00 AM 50.5266 -25.8306 260° West 514 592 35,000  Level FlightAware Transoceanic
Sat 09:00:00 AM 50.5026 -26.0523 260° West 514 592 35,000  Level FlightAware Transoceanic
Sat 09:01:00 AM 50.4782 -26.2737 260° West 514 592 35,000  Level FlightAware Transoceanic
Sat 09:02:00 AM 50.4534 -26.4949 260° West 514 592 35,000  Level FlightAware Transoceanic
Sat 09:03:00 AM 50.4282 -26.7159 260° West 514 592 35,000  Level FlightAware Transoceanic
Sat 09:04:00 AM 50.4025 -26.9366 260° West 514 592 35,000  Level FlightAware Transoceanic
Sat 09:05:00 AM 50.3764 -27.1571 259° West 514 592 35,000  Level FlightAware Transoceanic
Sat 09:06:00 AM 50.3500 -27.3773 259° West 514 592 35,000  Level FlightAware Transoceanic
Sat 09:07:00 AM 50.3231 -27.5973 259° West 514 592 35,000  Level FlightAware Transoceanic
Sat 09:08:00 AM 50.2957 -27.8171 259° West 514 592 35,000  Level FlightAware Transoceanic
Sat 09:09:00 AM 50.2680 -28.0365 259° West 514 592 35,000  Level FlightAware Transoceanic
Sat 09:10:00 AM 50.2399 -28.2558 259° West 514 592 35,000  Level FlightAware Transoceanic
Sat 09:11:00 AM 50.2113 -28.4748 258° West 514 592 35,000  Level FlightAware Transoceanic
Sat 09:12:00 AM 50.1824 -28.6935 258° West 514 592 35,000  Level FlightAware Transoceanic
Sat 09:13:00 AM 50.1530 -28.9119 258° West 514 592 35,000  Level FlightAware Transoceanic
Sat 09:14:00 AM 50.1232 -29.1301 258° West 514 592 35,000  Level FlightAware Transoceanic
Sat 09:15:00 AM 50.0930 -29.3480 258° West 514 592 35,000  Level FlightAware Transoceanic
Sat 09:16:00 AM 50.0624 -29.5656 258° West 514 592 35,000  Level FlightAware Transoceanic
Sat 09:17:00 AM 50.0314 -29.7829 257° West 514 592 35,000  Level FlightAware Transoceanic
Sat 09:18:00 AM 50.0042 -29.9713 257° West  Level FlightAware Approximate
Sat 09:19:00 AM 49.9766 -30.1595 257° West  Level FlightAware Approximate
Sat 09:20:00 AM 49.9925 -30.1337 265° West  Level FlightAware Approximate
Sat 09:21:00 AM 49.9815 -30.3258 265° West  Level FlightAware Approximate
Sat 09:22:00 AM 49.9701 -30.5180 265° West  Level FlightAware Approximate
Sat 09:23:00 AM 49.9585 -30.7100 265° West  Level FlightAware Approximate
Sat 09:24:00 AM 49.9465 -30.9019 265° West  Level FlightAware Approximate
Sat 09:25:00 AM 49.9342 -31.0937 264° West  Level FlightAware Approximate
Sat 09:26:00 AM 49.9216 -31.2854 264° West  Level FlightAware Approximate
Sat 09:27:00 AM 49.9086 -31.4770 264° West  Level FlightAware Approximate
Sat 09:28:00 AM 49.8954 -31.6685 264° West  Level FlightAware Approximate
Sat 09:29:00 AM 49.8818 -31.8599 264° West  Level FlightAware Approximate
Sat 09:30:00 AM 49.8680 -32.0513 264° West  Level FlightAware Approximate
Sat 09:31:00 AM 49.8538 -32.2424 264° West  Level FlightAware Approximate
Sat 09:32:00 AM 49.8393 -32.4335 263° West  Level FlightAware Approximate
Sat 09:33:00 AM 49.8244 -32.6245 263° West  Level FlightAware Approximate
Sat 09:34:00 AM 49.8093 -32.8153 263° West  Level FlightAware Approximate
Sat 09:35:00 AM 49.7939 -33.0060 263° West  Level FlightAware Approximate
Sat 09:36:00 AM 49.7781 -33.1966 263° West  Level FlightAware Approximate
Sat 09:37:00 AM 49.7620 -33.3871 263° West  Level FlightAware Approximate
Sat 09:38:00 AM 49.7457 -33.5774 262° West  Level FlightAware Approximate
Sat 09:39:00 AM 49.7290 -33.7676 262° West  Level FlightAware Approximate
Sat 09:40:00 AM 49.7119 -33.9577 262° West  Level FlightAware Approximate
Sat 09:41:00 AM 49.6946 -34.1477 262° West  Level FlightAware Approximate
Sat 09:42:00 AM 49.6770 -34.3375 262° West  Level FlightAware Approximate
Sat 09:43:00 AM 49.6591 -34.5271 262° West  Level FlightAware Approximate
Sat 09:44:00 AM 49.6408 -34.7167 262° West  Level FlightAware Approximate
Sat 09:45:00 AM 49.6223 -34.9061 261° West  Level FlightAware Approximate
Sat 09:46:00 AM 49.6034 -35.0953 261° West  Level FlightAware Approximate
Sat 09:47:00 AM 49.5842 -35.2844 261° West  Level FlightAware Approximate
Sat 09:48:00 AM 49.5648 -35.4733 261° West  Level FlightAware Approximate
Sat 09:49:00 AM 49.5450 -35.6621 261° West  Level FlightAware Approximate
Sat 09:50:00 AM 49.5249 -35.8508 261° West  Level FlightAware Approximate
Sat 09:51:00 AM 49.5045 -36.0392 261° West  Level FlightAware Approximate
Sat 09:52:00 AM 49.4838 -36.2276 260° West  Level FlightAware Approximate
Sat 09:53:00 AM 49.4627 -36.4157 260° West  Level FlightAware Approximate
Sat 09:54:00 AM 49.4414 -36.6037 260° West  Level FlightAware Approximate
Sat 09:55:00 AM 49.4198 -36.7916 260° West  Level FlightAware Approximate
Sat 09:56:00 AM 49.3979 -36.9792 260° West  Level FlightAware Approximate
Sat 09:57:00 AM 49.3756 -37.1667 260° West  Level FlightAware Approximate
Sat 09:58:00 AM 49.3531 -37.3541 260° West  Level FlightAware Approximate
Sat 09:59:00 AM 49.3303 -37.5412 259° West  Level FlightAware Approximate
Sat 10:00:00 AM 49.3072 -37.7282 259° West  Level FlightAware Approximate
Sat 10:01:00 AM 49.2837 -37.9150 259° West  Level FlightAware Approximate
Sat 10:02:00 AM 49.2600 -38.1017 259° West  Level FlightAware Approximate
Sat 10:03:00 AM 49.2359 -38.2881 259° West  Level FlightAware Approximate
Sat 10:04:00 AM 49.2116 -38.4744 259° West  Level FlightAware Approximate
Sat 10:05:00 AM 49.1870 -38.6604 259° West  Level FlightAware Approximate
Sat 10:06:00 AM 49.1620 -38.8463 258° West  Level FlightAware Approximate
Sat 10:07:00 AM 49.1368 -39.0320 258° West  Level FlightAware Approximate
Sat 10:08:00 AM 49.1113 -39.2176 258° West  Level FlightAware Approximate
Sat 10:09:00 AM 49.0854 -39.4029 258° West  Level FlightAware Approximate
Sat 10:10:00 AM 49.0593 -39.5880 258° West  Level FlightAware Approximate
Sat 10:11:00 AM 49.0329 -39.7729 258° West  Level FlightAware Approximate
Sat 10:12:00 AM 49.0062 -39.9577 258° West  Level FlightAware Approximate
Sat 10:13:00 AM 48.9910 -40.1451 265° West  Level FlightAware Approximate
Sat 10:14:00 AM 48.9791 -40.3332 265° West  Level FlightAware Approximate
Sat 10:15:00 AM 48.9669 -40.5213 264° West  Level FlightAware Approximate
Sat 10:16:00 AM 48.9544 -40.7093 264° West  Level FlightAware Approximate
Sat 10:17:00 AM 48.9416 -40.8972 264° West  Level FlightAware Approximate
Sat 10:18:00 AM 48.9284 -41.0850 264° West  Level FlightAware Approximate
Sat 10:19:00 AM 48.9150 -41.2727 264° West  Level FlightAware Approximate
Sat 10:20:00 AM 48.9013 -41.4603 264° West  Level FlightAware Approximate
Sat 10:21:00 AM 48.8872 -41.6478 264° West  Level FlightAware Approximate
Sat 10:22:00 AM 48.8729 -41.8351 263° West  Level FlightAware Approximate
Sat 10:23:00 AM 48.8582 -42.0224 263° West  Level FlightAware Approximate
Sat 10:24:00 AM 48.8433 -42.2096 263° West  Level FlightAware Approximate
Sat 10:25:00 AM 48.8280 -42.3966 263° West  Level FlightAware Approximate
Sat 10:26:00 AM 48.8129 -42.5836 263° West  Level FlightAware Approximate
Sat 10:27:00 AM 48.7985 -42.7707 263° West  Level FlightAware Approximate
Sat 10:28:00 AM 48.7838 -42.9577 263° West  Level FlightAware Approximate
Sat 10:29:00 AM 48.7688 -43.1446 263° West  Level FlightAware Approximate
Sat 10:30:00 AM 48.7536 -43.3314 263° West  Level FlightAware Approximate
Sat 10:31:00 AM 48.7380 -43.5180 263° West  Level FlightAware Approximate
Sat 10:32:00 AM 48.7221 -43.7046 263° West  Level FlightAware Approximate
Sat 10:33:00 AM 48.7059 -43.8910 263° West  Level FlightAware Approximate
Sat 10:34:00 AM 48.6895 -44.0773 262° West  Level FlightAware Approximate
Sat 10:35:00 AM 48.6727 -44.2635 262° West  Level FlightAware Approximate
Sat 10:36:00 AM 48.6556 -44.4495 262° West  Level FlightAware Approximate
Sat 10:37:00 AM 48.6382 -44.6354 262° West  Level FlightAware Approximate
Sat 10:38:00 AM 48.6206 -44.8212 262° West  Level FlightAware Approximate
Sat 10:39:00 AM 48.6026 -45.0069 262° West  Level FlightAware Approximate
Sat 10:40:00 AM 48.5838 -45.1923 261° West  Level FlightAware Approximate
Sat 10:41:00 AM 48.5647 -45.3776 261° West  Level FlightAware Approximate
Sat 10:42:00 AM 48.5453 -45.5627 261° West  Level FlightAware Approximate
Sat 10:43:00 AM 48.5256 -45.7477 261° West  Level FlightAware Approximate
Sat 10:44:00 AM 48.5055 -45.9325 261° West  Level FlightAware Approximate
Sat 10:45:00 AM 48.4852 -46.1172 261° West  Level FlightAware Approximate
Sat 10:46:00 AM 48.4647 -46.3017 261° West  Level FlightAware Approximate
Sat 10:47:00 AM 48.4444 -46.4863 261° West  Level FlightAware Approximate
Sat 10:48:00 AM 48.4238 -46.6707 261° West  Level FlightAware Approximate
Sat 10:49:00 AM 48.4029 -46.8549 260° West  Level FlightAware Approximate
Sat 10:50:00 AM 48.3817 -47.0390 260° West  Level FlightAware Approximate
Sat 10:51:00 AM 48.3602 -47.2229 260° West  Level FlightAware Approximate
Sat 10:52:00 AM 48.3384 -47.4067 260° West  Level FlightAware Approximate
Sat 10:53:00 AM 48.3163 -47.5903 260° West  Level FlightAware Approximate
Sat 10:54:00 AM 48.2940 -47.7738 260° West  Level FlightAware Approximate
Sat 10:55:00 AM 48.2713 -47.9571 260° West  Level FlightAware Approximate
Sat 10:56:00 AM 48.2484 -48.1402 259° West  Level FlightAware Approximate
Sat 10:57:00 AM 48.2251 -48.3232 259° West  Level FlightAware Approximate
Sat 10:58:00 AM 48.2023 -48.5009 259° West  Level FlightAware Approximate
Sat 10:59:00 AM 48.1791 -48.6784 259° West  Level FlightAware Approximate
Sat 11:00:00 AM 48.1557 -48.8558 259° West  Level FlightAware Approximate
Sat 11:01:00 AM 48.1320 -49.0331 259° West  Level FlightAware Approximate
Sat 11:02:00 AM 48.1081 -49.2101 259° West  Level FlightAware Approximate
Sat 11:03:00 AM 48.0839 -49.3870 258° West  Level FlightAware Approximate
Sat 11:03:56 AM 47.9930 -50.1880 258° West 426 490 35,000  Level FlightAware ADS-B
Sat 11:04:00 AM 48.0593 -49.5637 258° West  Level FlightAware Approximate
Sat 11:04:37 AM 47.9720 -50.3050 255° West 424 488 35,100  Level FlightAware ADS-B
Sat 11:05:18 AM 47.9520 -50.4190 255° West 417 480 36,200 1,553 Climbing FlightAware ADS-B
Sat 11:06:02 AM 47.9290 -50.5430 255° West 414 476 37,300 1,200 Climbing FlightAware ADS-B
Sat 11:06:48 AM 47.9070 -50.6660 255° West 415 478 38,000 494 Climbing FlightAware ADS-B
Sat 11:07:27 AM 47.8870 -50.7760 255° West 416 479 38,000  Level FlightAware ADS-B
Sat 11:08:12 AM 47.8640 -50.9000 255° West 419 482 38,000  Level FlightAware ADS-B
Sat 11:08:54 AM 47.8430 -51.0150 255° West 420 483 38,000  Level FlightAware ADS-B
Sat 11:09:32 AM 47.8230 -51.1210 254° West 419 482 38,000  Level FlightAware ADS-B
Sat 11:10:18 AM 47.7980 -51.2510 254° West 419 482 38,000  Level FlightAware ADS-B
Sat 11:10:57 AM 47.7780 -51.3560 254° West 418 481 38,000  Level FlightAware ADS-B
Sat 11:11:40 AM 47.7550 -51.4810 255° West 418 481 38,000  Level FlightAware ADS-B
Sat 11:12:24 AM 47.7320 -51.6000 254° West 418 481 38,000  Level FlightAware ADS-B
Sat 11:13:27 AM 47.6990 -51.7720 254° West 418 481 38,000  Level FlightAware ADS-B
Sat 11:14:03 AM 47.6800 -51.8710 254° West 418 481 38,000  Level FlightAware ADS-B
Sat 11:14:47 AM 47.6560 -51.9940 254° West 417 480 38,000  Level FlightAware ADS-B
Sat 11:15:29 AM 47.6340 -52.1040 254° West 417 480 38,000  Level FlightAware ADS-B
Sat 11:16:15 AM 47.6100 -52.2290 254° West 416 479 38,000  Level FlightAware ADS-B
Sat 11:16:53 AM 47.5880 -52.3380 253° West 415 478 38,000  Level FlightAware ADS-B
Sat 11:17:39 AM 47.5640 -52.4590 254° West 413 475 38,000  Level FlightAware ADS-B
Sat 11:18:18 AM 47.5420 -52.5670 253° West 413 475 38,000  Level FlightAware ADS-B
Sat 11:18:58 AM 47.5210 -52.6740 254° West 413 475 38,000  Level FlightAware ADS-B
Sat 11:19:44 AM 47.4960 -52.7990 254° West 412 474 38,000  Level FlightAware ADS-B
Sat 11:20:23 AM 47.4750 -52.9030 253° West 411 473 38,000  Level FlightAware ADS-B
Sat 11:21:04 AM 47.4520 -53.0130 253° West 410 472 38,000  Level FlightAware ADS-B
Sat 11:21:48 AM 47.4280 -53.1320 253° West 408 470 38,000  Level FlightAware ADS-B
Sat 11:22:19 AM 47.4110 -53.2140 253° West 408 470 38,000  Level FlightAware ADS-B
Sat 11:23:08 AM 47.3840 -53.3450 253° West 405 466 38,000  Level FlightAware ADS-B
Sat 11:23:48 AM 47.3620 -53.4500 253° West 404 465 38,000  Level FlightAware ADS-B
Sat 11:24:28 AM 47.3400 -53.5570 253° West 403 464 38,000  Level FlightAware ADS-B
Sat 11:25:08 AM 47.3180 -53.6610 253° West 402 463 38,000  Level FlightAware ADS-B
Sat 11:25:54 AM 47.2940 -53.7790 253° West 401 461 38,000  Level FlightAware ADS-B
Sat 11:26:33 AM 47.2710 -53.8840 252° West 401 461 38,000  Level FlightAware ADS-B
Sat 11:27:19 AM 47.2460 -54.0020 253° West 400 460 38,000  Level FlightAware ADS-B
Sat 11:27:59 AM 47.2240 -54.1060 253° West 398 458 38,000  Level FlightAware ADS-B
Sat 11:28:43 AM 47.2000 -54.2200 253° West 394 453 38,000  Level FlightAware ADS-B
Sat 11:29:19 AM 47.1800 -54.3120 252° West 391 450 38,000  Level FlightAware ADS-B
Sat 11:30:08 AM 47.1540 -54.4360 253° West 387 445 38,000  Level FlightAware ADS-B
Sat 11:30:49 AM 47.1320 -54.5340 252° West 389 448 38,000  Level FlightAware ADS-B
Sat 11:31:26 AM 47.1110 -54.6340 253° West 389 448 38,000  Level FlightAware ADS-B
Sat 11:32:04 AM 47.0900 -54.7300 252° West 388 447 38,000 366 Level FlightAware ADS-B
Sat 11:32:48 AM 47.0670 -54.8350 252° West 383 441 38,500 571 Climbing FlightAware ADS-B
Sat 11:33:28 AM 47.0450 -54.9340 252° West 392 451 38,800 375 Climbing FlightAware ADS-B
Sat 11:34:08 AM 47.0220 -55.0390 252° West 402 463 39,000 141 Climbing FlightAware ADS-B
Sat 11:34:53 AM 46.9960 -55.1570 252° West 401 461 39,000  Level FlightAware ADS-B
Sat 11:35:49 AM 46.9650 -55.2960 252° West 400 460 39,000  Level FlightAware ADS-B
Sat 11:36:20 AM 46.9500 -55.3670 253° West 397 457 39,000  Level FlightAware ADS-B
Sat 11:37:08 AM 46.9190 -55.5010 251° West 394 453 39,000  Level FlightAware ADS-B
Sat 11:37:50 AM 46.8970 -55.6030 253° West 392 451 39,000  Level FlightAware ADS-B
Sat 11:38:23 AM 46.8770 -55.6900 251° West 391 450 39,000  Level FlightAware ADS-B
Sat 11:39:03 AM 46.8560 -55.7840 252° West 389 448 39,000  Level FlightAware ADS-B
Sat 11:39:43 AM 46.8320 -55.8890 252° West 389 448 39,000  Level FlightAware ADS-B
Sat 11:40:20 AM 46.8140 -55.9680 252° West 389 448 39,000  Level FlightAware ADS-B
Sat 11:41:08 AM 46.7900 -56.0690 251° West 389 448 39,000  Level FlightAware ADS-B
Sat 11:41:49 AM 46.7620 -56.1960 252° West 393 452 39,000  Level FlightAware ADS-B
Sat 11:42:41 AM 46.7330 -56.3200 251° West 399 459 39,000  Level FlightAware ADS-B
Sat 11:43:17 AM 46.7140 -56.3980 250° West 399 459 39,000  Level FlightAware ADS-B
Sat 11:44:09 AM 46.6810 -56.5440 252° West 403 464 39,000  Level FlightAware ADS-B
Sat 11:44:53 AM 46.6500 -56.6770 251° West 407 468 39,000  Level FlightAware ADS-B
Sat 11:45:50 AM 46.6200 -56.8050 251° West 412 474 39,000  Level FlightAware ADS-B
Sat 11:46:39 AM 46.5890 -56.9380 251° West 414 476 39,000  Level FlightAware ADS-B
Sat 11:47:08 AM 46.5700 -57.0170 251° West 414 476 39,000  Level FlightAware ADS-B
Sat 11:47:56 AM 46.5450 -57.1240 251° West 414 476 39,000  Level FlightAware ADS-B
Sat 11:48:33 AM 46.5140 -57.2510 251° West 420 483 39,000  Level FlightAware ADS-B
Sat 11:49:08 AM 46.4910 -57.3450 250° West 421 484 39,000  Level FlightAware ADS-B
Sat 11:50:04 AM 46.4570 -57.4850 251° West 421 484 39,000  Level FlightAware ADS-B
Sat 11:50:40 AM 46.4310 -57.5940 251° West 424 488 39,000  Level FlightAware ADS-B
Sat 11:51:23 AM 46.4030 -57.7080 250° West 425 489 39,000  Level FlightAware ADS-B
Sat 11:52:02 AM 46.3770 -57.8150 251° West 426 490 39,000  Level FlightAware ADS-B
Sat 11:52:38 AM 46.3530 -57.9120 250° West 426 490 39,000  Level FlightAware ADS-B
Sat 11:53:38 AM 46.3130 -58.0730 250° West 426 490 39,000  Level FlightAware ADS-B
Sat 11:54:19 AM 46.2860 -58.1810 250° West 426 490 39,000  Level FlightAware ADS-B
Sat 11:54:59 AM 46.2590 -58.2880 250° West 426 490 39,000  Level FlightAware ADS-B
Sat 11:55:41 AM 46.2310 -58.4000 250° West 426 490 39,000  Level FlightAware ADS-B
Sat 11:56:19 AM 46.2050 -58.5020 250° West 427 491 39,000  Level FlightAware ADS-B
Sat 11:56:53 AM 46.1820 -58.5930 250° West 429 494 39,000  Level FlightAware ADS-B
Sat 11:57:35 AM 46.1530 -58.7050 250° West 431 496 39,000  Level FlightAware ADS-B
Sat 11:58:15 AM 46.1250 -58.8140 250° West 433 498 39,000  Level FlightAware ADS-B
Sat 11:58:59 AM 46.0950 -58.9310 250° West 434 499 39,000  Level FlightAware ADS-B
Sat 11:59:39 AM 46.0660 -59.0410 249° West 435 501 39,000  Level FlightAware ADS-B
Sat 12:00:21 PM 46.0360 -59.1530 249° West 437 503 39,000  Level FlightAware ADS-B
Sat 12:01:01 PM 46.0080 -59.2630 250° West 437 503 39,000  Level FlightAware ADS-B
Sat 12:01:39 PM 45.9810 -59.3640 249° West 438 504 39,000  Level FlightAware ADS-B
Sat 12:02:23 PM 45.9480 -59.4860 249° West 439 505 39,000  Level FlightAware ADS-B
Sat 12:02:59 PM 45.9230 -59.5820 250° West 440 506 39,000  Level FlightAware ADS-B
Sat 12:03:35 PM 45.8960 -59.6810 249° West 441 507 39,000  Level FlightAware ADS-B
Sat 12:04:19 PM 45.8640 -59.8010 249° West 442 509 39,000  Level FlightAware ADS-B
Sat 12:04:55 PM 45.8370 -59.9000 249° West 444 511 39,000  Level FlightAware ADS-B
Sat 12:05:43 PM 45.8010 -60.0310 249° West 446 513 39,000  Level FlightAware ADS-B
Sat 12:06:23 PM 45.7720 -60.1390 249° West 448 516 39,000  Level FlightAware ADS-B
Sat 12:07:07 PM 45.7370 -60.2630 248° West 448 516 39,000  Level FlightAware ADS-B
Sat 12:07:47 PM 45.7070 -60.3720 249° West 448 516 39,000  Level FlightAware ADS-B
Sat 12:08:30 PM 45.6740 -60.4890 248° West 448 516 39,000  Level FlightAware ADS-B
Sat 12:09:10 PM 45.6430 -60.6000 248° West 447 514 39,000  Level FlightAware ADS-B
Sat 12:09:54 PM 45.6100 -60.7180 248° West 446 513 39,000  Level FlightAware ADS-B
Sat 12:10:39 PM 45.5750 -60.8400 248° West 445 512 39,000  Level FlightAware ADS-B
Sat 12:11:19 PM 45.5450 -60.9450 248° West 445 512 39,000  Level FlightAware ADS-B
Sat 12:12:11 PM 45.5120 -61.0580 247° West 444 511 39,000  Level FlightAware ADS-B
Sat 12:13:10 PM 45.4600 -61.2390 248° West 443 510 39,000  Level FlightAware ADS-B
Sat 12:13:46 PM 45.4350 -61.3210 247° West 443 510 39,000  Level FlightAware ADS-B
Sat 12:14:21 PM 45.4110 -61.4010 247° West 443 510 39,000  Level FlightAware ADS-B
Sat 12:15:08 PM 45.3790 -61.5080 247° West 443 510 39,000  Level FlightAware ADS-B
Sat 12:15:42 PM 45.3560 -61.5860 247° West 443 510 39,000  Level FlightAware ADS-B
Sat 12:16:19 PM 45.3310 -61.6700 247° West 443 510 39,000  Level FlightAware ADS-B
Sat 12:17:08 PM 45.2980 -61.7820 247° West 443 510 39,000  Level FlightAware ADS-B
Sat 12:17:44 PM 45.2730 -61.8640 247° West 443 510 39,000  Level FlightAware ADS-B
Sat 12:18:33 PM 45.2400 -61.9760 247° West 443 510 39,000  Level FlightAware ADS-B
Sat 12:19:08 PM 45.2160 -62.0550 247° West 443 510 39,000  Level FlightAware ADS-B
Sat 12:19:56 PM 45.1830 -62.1650 247° West 443 510 39,000  Level FlightAware ADS-B
Sat 12:20:32 PM 45.1590 -62.2470 247° West 443 510 39,000  Level FlightAware ADS-B
Sat 12:21:08 PM 45.1340 -62.3280 246° West 443 510 39,000  Level FlightAware ADS-B
Sat 12:21:56 PM 45.1010 -62.4370 247° West 443 510 39,000  Level FlightAware ADS-B
Sat 12:22:33 PM 45.0760 -62.5210 247° West 443 510 39,000  Level FlightAware ADS-B
Sat 12:24:42 PM 44.8950 -63.0910 246° West 39,000  Level FlightAware ADS-B
Sat 12:25:21 PM 44.8620 -63.1940 246° West 445 512 39,000  Level FlightAware ADS-B
Sat 12:26:03 PM 44.8280 -63.3020 246° West 444 511 39,000  Level FlightAware ADS-B
Sat 12:26:46 PM 44.7910 -63.4170 246° West 444 511 39,000  Level FlightAware ADS-B
Sat 12:27:30 PM 44.7550 -63.5300 246° West 444 511 39,000  Level FlightAware ADS-B
Sat 12:28:07 PM 44.7210 -63.6340 245° Southwest 443 510 39,000  Level FlightAware ADS-B
Sat 12:28:53 PM 44.6810 -63.7560 245° Southwest 443 510 39,000  Level FlightAware ADS-B
Sat 12:29:37 PM 44.6430 -63.8700 245° Southwest 443 510 39,000  Level FlightAware ADS-B
Sat 12:30:17 PM 44.6090 -63.9730 245° Southwest 445 512 39,000  Level FlightAware ADS-B
Sat 12:31:00 PM 44.5720 -64.0860 245° Southwest 446 513 39,000  Level FlightAware ADS-B
Sat 12:31:37 PM 44.5400 -64.1840 245° Southwest 446 513 39,000  Level FlightAware ADS-B
Sat 12:32:21 PM 44.5010 -64.2990 245° Southwest 447 514 39,000  Level FlightAware ADS-B
Sat 12:33:04 PM 44.4640 -64.4110 245° Southwest 447 514 39,000  Level FlightAware ADS-B
Sat 12:33:47 PM 44.4260 -64.5240 245° Southwest 447 514 39,000  Level FlightAware ADS-B
Sat 12:34:29 PM 44.3890 -64.6320 244° Southwest 448 516 39,000  Level FlightAware ADS-B
Sat 12:35:09 PM 44.3540 -64.7370 245° Southwest 448 516 39,000  Level FlightAware ADS-B
Sat 12:35:53 PM 44.3140 -64.8530 244° Southwest 448 516 39,000  Level FlightAware ADS-B
Sat 12:36:35 PM 44.2770 -64.9610 244° Southwest 447 514 39,000  Level FlightAware ADS-B
Sat 12:37:15 PM 44.2410 -65.0660 244° Southwest 446 513 39,000  Level FlightAware ADS-B
Sat 12:37:57 PM 44.2040 -65.1720 244° Southwest 446 513 39,000  Level FlightAware ADS-B
Sat 12:38:43 PM 44.1650 -65.2870 245° Southwest 447 514 39,000  Level FlightAware ADS-B
Sat 12:39:19 PM 44.1300 -65.3860 244° Southwest 447 514 39,000  Level FlightAware ADS-B
Sat 12:40:06 PM 44.0890 -65.5050 244° Southwest 446 513 39,000  Level FlightAware ADS-B
Sat 12:40:46 PM 44.0530 -65.6080 244° Southwest 446 513 39,000  Level FlightAware ADS-B
Sat 12:41:21 PM 44.0220 -65.6960 244° Southwest 445 512 39,000  Level FlightAware ADS-B
Sat 12:42:11 PM 43.9770 -65.8250 244° Southwest 445 512 39,000  Level FlightAware ADS-B
Sat 12:42:51 PM 43.9400 -65.9310 244° Southwest 443 510 39,000  Level FlightAware ADS-B
Sat 12:43:31 PM 43.9040 -66.0300 243° Southwest 442 509 39,000  Level FlightAware ADS-B
Sat 12:44:16 PM 43.8640 -66.1430 244° Southwest 440 506 39,000  Level FlightAware ADS-B
Sat 12:44:56 PM 43.8290 -66.2440 244° Southwest 439 505 39,000  Level FlightAware ADS-B
Sat 12:45:36 PM 43.7920 -66.3450 243° Southwest 438 504 39,000  Level FlightAware ADS-B
Sat 12:46:21 PM 43.7530 -66.4560 244° Southwest 436 502 39,000  Level FlightAware ADS-B
Sat 12:47:01 PM 43.7170 -66.5550 243° Southwest 436 502 39,000  Level FlightAware ADS-B
Sat 12:47:36 PM 43.6850 -66.6430 243° Southwest 434 499 39,000  Level FlightAware ADS-B
Sat 12:48:22 PM 43.6450 -66.7550 244° Southwest 433 498 39,000  Level FlightAware ADS-B
Sat 12:49:22 PM 43.5910 -66.9040 243° Southwest 431 496 39,000  Level FlightAware ADS-B
Sat 12:50:06 PM 43.5520 -67.0150 244° Southwest 422 486 39,000  Level FlightAware ADS-B
Sat 12:50:46 PM 43.5240 -67.1130 249° West 416 479 39,000  Level FlightAware ADS-B
Sat 12:51:31 PM 43.4920 -67.2270 249° West 416 479 39,000  Level FlightAware ADS-B
Sat 12:52:11 PM 43.4650 -67.3220 249° West 412 474 39,000  Level FlightAware ADS-B
Sat 12:52:51 PM 43.4370 -67.4210 249° West 411 473 39,000  Level FlightAware ADS-B
Sat 12:53:36 PM 43.4070 -67.5290 249° West 410 472 39,000  Level FlightAware ADS-B
Sat 12:54:16 PM 43.3790 -67.6260 248° West 409 471 39,000  Level FlightAware ADS-B
Sat 12:55:01 PM 43.3480 -67.7330 248° West 409 471 39,000  Level FlightAware ADS-B
Sat 12:55:42 PM 43.3190 -67.8340 248° West 410 472 39,000  Level FlightAware ADS-B
Sat 12:56:23 PM 43.2910 -67.9320 249° West 409 471 39,000  Level FlightAware ADS-B
Sat 12:57:02 PM 43.2640 -68.0250 248° West 412 474 39,000  Level FlightAware ADS-B
Sat 12:57:43 PM 43.2380 -68.1180 249° West 412 474 39,000  Level FlightAware ADS-B
Sat 12:58:30 PM 43.2030 -68.2360 248° West 416 479 39,000  Level FlightAware ADS-B
Sat 12:59:10 PM 43.1730 -68.3390 248° West 419 482 39,000  Level FlightAware ADS-B
Sat 12:59:55 PM 43.1410 -68.4490 248° West 420 483 39,000  Level FlightAware ADS-B
Sat 01:00:30 PM 43.1150 -68.5380 248° West 420 483 39,000  Level FlightAware ADS-B
Sat 01:01:15 PM 43.0830 -68.6480 248° West 420 483 39,000  Level FlightAware ADS-B
Sat 01:02:00 PM 43.0490 -68.7640 248° West 425 489 39,000  Level FlightAware ADS-B
Sat 01:02:40 PM 43.0200 -68.8620 248° West 425 489 39,000  Level FlightAware ADS-B
Sat 01:03:20 PM 42.9910 -68.9600 248° West 426 490 39,000  Level FlightAware ADS-B
Sat 01:04:05 PM 42.9570 -69.0740 248° West 426 490 39,000  Level FlightAware ADS-B
Sat 01:04:45 PM 42.9280 -69.1730 248° West 426 490 39,000  Level FlightAware ADS-B
Sat 01:05:30 PM 42.8940 -69.2850 248° West 426 490 39,000  Level FlightAware ADS-B
Sat 01:06:10 PM 42.8650 -69.3830 248° West 427 491 39,000  Level FlightAware ADS-B
Sat 01:06:51 PM 42.8340 -69.4840 247° West 428 493 39,000  Level FlightAware ADS-B
Sat 01:07:31 PM 42.8040 -69.5840 248° West 429 494 39,000  Level FlightAware ADS-B
Sat 01:08:11 PM 42.7740 -69.6840 248° West 430 495 39,000  Level FlightAware ADS-B
Sat 01:08:51 PM 42.7430 -69.7850 247° West 431 496 39,000 -140 Level FlightAware ADS-B
Sat 01:09:37 PM 42.7080 -69.8980 247° West 433 498 38,800 -1,125 Descending FlightAware ADS-B
Sat 01:10:11 PM 42.6820 -69.9860 248° West 431 496 37,500 -2,514 Descending FlightAware ADS-B
Sat 01:10:51 PM 42.6510 -70.0850 247° West 437 503 35,700 -2,602 Descending FlightAware ADS-B
Sat 01:11:34 PM 42.6220 -70.1790 247° West 447 514 33,900 -3,310 Descending FlightAware ADS-B
Sat 01:12:18 PM 42.5790 -70.3150 247° West 459 528 30,900 -3,462 Descending FlightAware ADS-B
Sat 01:12:52 PM 42.5540 -70.4060 250° West 470 541 29,400 -1,976 Descending FlightAware ADS-B
Sat 01:13:40 PM 42.5200 -70.5370 251° West 461 531 28,200 -966 Descending FlightAware ADS-B
Sat 01:14:19 PM 42.4940 -70.6440 252° West 455 524 28,000 -152 Descending FlightAware ADS-B
Sat 01:14:59 PM 42.4660 -70.7540 251° West 460 529 28,000 -659 Level FlightAware ADS-B
Sat 01:15:41 PM 42.4380 -70.8670 251° West 453 521 27,100 -1,756 Descending FlightAware ADS-B
Sat 01:16:21 PM 42.4120 -70.9730 252° West 444 511 25,600 -2,250 Descending FlightAware ADS-B
Sat 01:17:01 PM 42.3860 -71.0740 251° West 434 499 24,100 -2,289 Descending FlightAware ADS-B
Sat 01:17:37 PM 42.3630 -71.1640 251° West 421 484 22,700 -2,308 Descending FlightAware ADS-B
Sat 01:18:19 PM 42.3360 -71.2710 251° West 410 472 21,100 -1,950 Descending FlightAware ADS-B
Sat 01:18:57 PM 42.3120 -71.3620 250° West 407 468 20,100 -907 Descending FlightAware ADS-B
Sat 01:19:45 PM 42.2830 -71.4770 251° West 407 468 19,800 -759 Descending FlightAware ADS-B
Sat 01:20:24 PM 42.2590 -71.5680 250° West 402 463 19,000 -1,143 Descending FlightAware ADS-B
Sat 01:21:09 PM 42.2320 -71.6720 251° West 393 452 18,200 -1,059 Descending FlightAware ADS-B
Sat 01:21:49 PM 42.2080 -71.7630 250° West 389 448 17,500 -1,133 Descending FlightAware ADS-B
Sat 01:22:39 PM 42.1780 -71.8780 251° West 386 444 16,500 -871 Descending FlightAware ADS-B
Sat 01:23:53 PM 42.1890 -71.8360 71° East 379 436 15,700 -400 Descending FlightAware ADS-B
Sat 01:24:39 PM 42.1670 -71.9240 251° West 379 436 15,700  Level FlightAware ADS-B
Sat 01:25:15 PM 42.1490 -71.9920 250° West 379 436 15,700  Level FlightAware ADS-B
Sat 01:26:03 PM 42.1260 -72.0830 251° West 379 436 15,700  Level FlightAware ADS-B
Sat 01:26:39 PM 42.1090 -72.1520 252° West 379 436 15,700  Level FlightAware ADS-B
Sat 01:28:40 PM 41.9660 -72.6660 250° West 378 435 15,700  Level FlightAware ADS-B
Sat 01:29:14 PM 41.9480 -72.7300 249° West 378 435 15,700  Level FlightAware ADS-B
Sat 01:29:49 PM 41.9300 -72.7960 250° West 378 435 15,700  Level FlightAware ADS-B
Sat 01:30:38 PM 41.9060 -72.8880 251° West 378 435 15,700  Level FlightAware ADS-B
Sat 01:31:15 PM 41.8870 -72.9570 250° West 378 435 15,700  Level FlightAware ADS-B
Sat 01:35:54 PM 41.7050 -73.6290 250° West 377 434 15,700  Level FlightAware ADS-B
Sat 01:36:38 PM 41.6730 -73.7210 245° Southwest 376 433 15,700 -477 Level FlightAware ADS-B
Sat 01:37:22 PM 41.6400 -73.8150 245° Southwest 368 423 15,000 -1,279 Descending FlightAware ADS-B
Sat 01:37:39 PM 41.6270 -73.8510 244° Southwest 366 421 14,400 -2,353 Descending FlightAware ADS-B
Sat 01:38:13 PM 41.6027 -73.9205 245° Southwest 362 417 13,000 -2,298 Descending FlightAware ADS-B
Sat 01:39:13 PM 41.5604 -74.0395 245° Southwest 360 414 10,800 -1,891 Descending FlightAware ADS-B
Sat 01:39:45 PM 41.5391 -74.0995 245° Southwest 329 379 10,100 -900 Descending FlightAware ADS-B
Sat 01:40:13 PM 41.5214 -74.1490 244° Southwest 301 346 9,900 -387 Descending FlightAware ADS-B
Sat 01:40:47 PM 41.5030 -74.1990 244° Southwest 259 298 9,700 -265 Descending FlightAware ADS-B
Sat 01:41:21 PM 41.4880 -74.2410 245° Southwest 254 292 9,600 -1,688 Descending FlightAware ADS-B
Sat 01:41:51 PM 41.4698 -74.2927 245° Southwest 261 300 7,900 -2,127 Descending FlightAware ADS-B
Sat 01:42:40 PM 41.4276 -74.3394 220° Southwest 255 293 6,800 -735 Descending FlightAware ADS-B
Sat 01:43:29 PM 41.3730 -74.3590 195° South 256 295 6,700 -80 Descending FlightAware ADS-B
Sat 01:43:55 PM 41.3480 -74.3690 197° South 256 295 6,700  Level FlightAware ADS-B
Sat 01:45:57 PM 41.2034 -74.4268 197° South 253 291 6,700  Level FlightAware ADS-B
Sat 01:46:03 PM 41.1967 -74.4293 196° South 253 291 6,700 -429 Level FlightAware ADS-B
Sat 01:46:39 PM 41.1561 -74.4451 196° South 253 291 6,400 -474 Descending FlightAware ADS-B
Sat 01:46:41 PM 41.1543 -74.4460 201° Southwest 254 292 6,400 -1,043 Level FlightAware ADS-B
Sat 01:47:02 PM 41.1311 -74.4552 197° South 251 289 6,000 -1,435 Descending FlightAware ADS-B
Sat 01:47:27 PM 41.1033 -74.4664 197° South 252 290 5,300 -1,532 Descending FlightAware ADS-B
Sat 01:47:49 PM 41.0789 -74.4763 197° South 253 291 4,800 -857 Descending FlightAware ADS-B
Sat 01:48:09 PM 41.0559 -74.4858 197° South 255 293 4,700 -76 Descending FlightAware ADS-B
Sat 01:49:08 PM 41.0000 -74.5090 197° South 254 292 4,700  Level FlightAware ADS-B
Sat 01:49:49 PM 40.9430 -74.5310 196° South 256 295 4,700 113 Level FlightAware ADS-B
Sat 01:50:01 PM 40.9300 -74.5310 180° South 256 295 4,800  Climbing FlightAware ADS-B
Sat 01:50:27 PM 40.8970 -74.5280 176° South 258 297 4,700 -98 Descending FlightAware ADS-B
Sat 01:51:02 PM 40.8557 -74.5246 176° South 257 296 4,700  Level FlightAware ADS-B
Sat 01:51:24 PM 40.8300 -74.5236 178° South 257 296 4,700  Level FlightAware ADS-B
Sat 01:51:44 PM 40.8058 -74.5229 179° South 256 295 4,700  Level FlightAware ADS-B
Sat 01:52:15 PM 40.7687 -74.5215 178° South 257 296 4,700  Level FlightAware ADS-B
Sat 01:52:17 PM 40.7663 -74.5213 176° South 258 297 4,700  Level FlightAware ADS-B
Sat 01:52:33 PM 40.7472 -74.5206 178° South 260 299 4,700  Level FlightAware ADS-B
Sat 01:52:55 PM 40.7215 -74.5200 179° South 260 299 4,700  Level FlightAware ADS-B
Sat 01:53:07 PM 40.7062 -74.5203 181° South 256 295 4,700  Level FlightAware ADS-B
Sat 01:53:48 PM 40.6582 -74.5215 181° South 259 298 4,700  Level FlightAware ADS-B
Sat 01:54:00 PM 40.6432 -74.5186 172° South 259 298 4,700  Level FlightAware ADS-B
Sat 01:54:08 PM 40.6352 -74.5136 155° Southeast 263 303 4,700 333 Level FlightAware ADS-B
Sat 01:54:18 PM 40.6254 -74.5033 141° Southeast 266 306 4,800  Climbing FlightAware ADS-B
Sat 01:54:35 PM 40.6104 -74.4837 135° Southeast 267 307 4,700 -146 Descending FlightAware ADS-B
Sat 01:54:59 PM 40.5893 -74.4556 135° Southeast 267 307 4,700  Level FlightAware ADS-B
Sat 01:55:16 PM 40.5751 -74.4371 135° Southeast 272 313 4,700  Level FlightAware ADS-B
Sat 01:55:29 PM 40.5638 -74.4214 133° Southeast 270 311 4,700  Level FlightAware ADS-B
Sat 01:55:37 PM 40.5585 -74.4104 122° Southeast 272 313 4,700  Level FlightAware ADS-B
Sat 01:55:41 PM 40.5565 -74.4042 113° Southeast 273 314 4,700 -1,091 Level FlightAware ADS-B
Sat 01:55:48 PM 40.5546 -74.3920 102° East 272 313 4,500 -1,385 Descending FlightAware ADS-B
Sat 01:56:07 PM 40.5564 -74.3622 85° East 264 304 4,100 -1,263 Descending FlightAware ADS-B
Sat 01:56:26 PM 40.5607 -74.3330 79° East 253 291 3,700 -1,263 Descending FlightAware ADS-B
Sat 01:57:04 PM 40.5713 -74.2786 76° East 230 265 2,900 -1,286 Descending FlightAware ADS-B
Sat 01:57:08 PM 40.5723 -74.2729 77° East 226 260 2,800 -1,333 Descending FlightAware ADS-B
Sat 01:57:13 PM 40.5741 -74.2665 70° East 221 254 2,700 -750 Descending FlightAware ADS-B
Sat 01:57:16 PM 40.5753 -74.2628 67° East 218 251 2,700 -600 Level FlightAware ADS-B
Sat 01:57:33 PM 40.5847 -74.2463 53° Northeast 196 226 2,500 -783 Descending FlightAware ADS-B
Sat 01:57:39 PM 40.5897 -74.2424 31° Northeast 189 217 2,400 -1,385 Descending FlightAware ADS-B
Sat 01:57:46 PM 40.5952 -74.2387 27° Northeast 184 212 2,200 -1,714 Descending FlightAware ADS-B
Sat 01:58:07 PM 40.6105 -74.2291 25° Northeast 179 206 1,600 -1,263 Descending FlightAware ADS-B
Sat 01:58:24 PM 40.6231 -74.2209 26° Northeast 178 205 1,400 -727 Descending FlightAware ADS-B
Sat 01:58:40 PM 40.6333 -74.2147 25° Northeast 150 173 1,200 -1,043 Descending FlightAware ADS-B
Sat 01:58:47 PM 40.6381 -74.2120 23° Northeast 148 170 1,000 -1,043 Descending FlightAware ADS-B
Sat 01:59:03 PM 40.6474 -74.2060 26° Northeast 144 166 800 -882 Descending FlightAware ADS-B
Sat 01:59:21 PM 40.6578 -74.1989 27° Northeast 141 162 500 -1,091 Descending FlightAware ADS-B
Sat 01:59:36 PM 40.6666 -74.1933 26° Northeast 138 159 200 -1,043 Descending FlightAware ADS-B
Sat 01:59:44 PM 40.6712 -74.1904 26° Northeast 137 158 100 -750 Descending FlightAware ADS-B

Login

Don't have an account? Register now (free) for customized features, flight alerts, and more!